Terminal Aerodrome Forecast
Issued by NWS

Home | Current Version | Previous Version | Text Only | Print | Product List | Glossary On
Versions: 1 2 3 4 5 6 7 8 9 10 11 12 13 14 15
000
FTAK31 PAJN 230530
TAFASI
TAF
PASI 230530Z 2306/2406 10006KT P6SM -SN OVC025
     FM230900 09004KT P6SM VCSH BKN030 OVC050
     FM231200 32003KT P6SM BKN060
     FM232100 32010KT P6SM SCT060 SCT080
     FM240300 34003KT P6SM SCT080=

USA.gov is the U.S. government's official web portal to all federal, state and local government web resources and services.